sensor_id;sensor_type;location;lat;lon;timestamp;P1;durP1;ratioP1;P2;durP2;ratioP2
27113;SDS011;14648;49.730;8.614;2022-12-05T00:01:28;24.13;;;12.30;;
27113;SDS011;14648;49.730;8.614;2022-12-05T00:04:03;30.80;;;14.17;;
27113;SDS011;14648;49.730;8.614;2022-12-05T00:06:31;29.50;;;15.30;;
27113;SDS011;14648;49.730;8.614;2022-12-05T00:08:59;30.00;;;14.23;;
27113;SDS011;14648;49.730;8.614;2022-12-05T00:11:26;31.13;;;14.50;;
27113;SDS011;14648;49.730;8.614;2022-12-05T00:13:56;27.27;;;13.30;;
27113;SDS011;14648;49.730;8.614;2022-12-05T00:16:24;29.43;;;15.53;;
27113;SDS011;14648;49.730;8.614;2022-12-05T00:18:52;26.37;;;14.57;;
27113;SDS011;14648;49.730;8.614;2022-12-05T00:21:22;27.30;;;13.73;;
27113;SDS011;14648;49.730;8.614;2022-12-05T00:23:53;28.43;;;14.27;;
27113;SDS011;14648;49.730;8.614;2022-12-05T00:26:21;30.03;;;13.53;;
27113;SDS011;14648;49.730;8.614;2022-12-05T00:28:49;25.70;;;13.17;;
27113;SDS011;14648;49.730;8.614;2022-12-05T00:31:16;23.20;;;12.90;;
27113;SDS011;14648;49.730;8.614;2022-12-05T00:33:46;33.20;;;15.60;;
27113;SDS011;14648;49.730;8.614;2022-12-05T00:36:14;31.77;;;14.90;;
27113;SDS011;14648;49.730;8.614;2022-12-05T00:38:49;31.77;;;15.90;;
27113;SDS011;14648;49.730;8.614;2022-12-05T00:41:17;32.73;;;15.60;;
27113;SDS011;14648;49.730;8.614;2022-12-05T00:43:46;28.90;;;13.50;;
27113;SDS011;14648;49.730;8.614;2022-12-05T00:46:13;28.00;;;12.80;;
27113;SDS011;14648;49.730;8.614;2022-12-05T00:48:42;32.13;;;14.20;;
27113;SDS011;14648;49.730;8.614;2022-12-05T00:51:13;35.17;;;15.17;;
27113;SDS011;14648;49.730;8.614;2022-12-05T00:53:44;28.13;;;13.77;;
27113;SDS011;14648;49.730;8.614;2022-12-05T00:56:11;32.97;;;14.87;;
27113;SDS011;14648;49.730;8.614;2022-12-05T00:58:41;26.97;;;13.77;;
27113;SDS011;14648;49.730;8.614;2022-12-05T01:01:07;27.27;;;13.30;;
27113;SDS011;14648;49.730;8.614;2022-12-05T01:03:36;28.27;;;13.43;;
27113;SDS011;14648;49.730;8.614;2022-12-05T01:06:02;26.63;;;14.50;;
27113;SDS011;14648;49.730;8.614;2022-12-05T01:08:30;35.97;;;14.60;;
27113;SDS011;14648;49.730;8.614;2022-12-05T01:10:57;30.63;;;13.90;;
27113;SDS011;14648;49.730;8.614;2022-12-05T01:13:24;26.93;;;14.87;;
27113;SDS011;14648;49.730;8.614;2022-12-05T01:15:52;26.90;;;14.53;;
27113;SDS011;14648;49.730;8.614;2022-12-05T01:18:18;30.10;;;13.83;;
27113;SDS011;14648;49.730;8.614;2022-12-05T01:20:46;28.20;;;13.37;;
27113;SDS011;14648;49.730;8.614;2022-12-05T01:23:12;32.57;;;14.67;;
27113;SDS011;14648;49.730;8.614;2022-12-05T01:25:39;30.43;;;14.57;;
27113;SDS011;14648;49.730;8.614;2022-12-05T01:28:09;28.60;;;13.87;;
27113;SDS011;14648;49.730;8.614;2022-12-05T01:30:39;33.43;;;16.50;;
27113;SDS011;14648;49.730;8.614;2022-12-05T01:33:07;25.47;;;13.83;;
27113;SDS011;14648;49.730;8.614;2022-12-05T01:35:34;30.67;;;14.00;;
27113;SDS011;14648;49.730;8.614;2022-12-05T01:38:02;33.60;;;15.47;;
27113;SDS011;14648;49.730;8.614;2022-12-05T01:40:29;31.60;;;15.00;;
27113;SDS011;14648;49.730;8.614;2022-12-05T01:42:55;29.37;;;14.40;;
27113;SDS011;14648;49.730;8.614;2022-12-05T01:45:25;26.20;;;14.33;;
27113;SDS011;14648;49.730;8.614;2022-12-05T01:48:01;29.53;;;14.33;;
27113;SDS011;14648;49.730;8.614;2022-12-05T01:50:32;30.20;;;15.00;;
27113;SDS011;14648;49.730;8.614;2022-12-05T01:52:59;26.10;;;14.73;;
27113;SDS011;14648;49.730;8.614;2022-12-05T01:55:26;29.50;;;14.80;;
27113;SDS011;14648;49.730;8.614;2022-12-05T01:57:52;23.30;;;13.87;;
27113;SDS011;14648;49.730;8.614;2022-12-05T02:00:21;28.60;;;13.73;;
27113;SDS011;14648;49.730;8.614;2022-12-05T02:02:51;33.57;;;15.00;;
27113;SDS011;14648;49.730;8.614;2022-12-05T02:05:22;29.63;;;14.17;;
27113;SDS011;14648;49.730;8.614;2022-12-05T02:07:53;28.00;;;12.70;;
27113;SDS011;14648;49.730;8.614;2022-12-05T02:10:22;38.77;;;14.17;;
27113;SDS011;14648;49.730;8.614;2022-12-05T02:12:48;28.33;;;14.33;;
27113;SDS011;14648;49.730;8.614;2022-12-05T02:15:27;31.43;;;15.90;;
27113;SDS011;14648;49.730;8.614;2022-12-05T02:21:53;28.10;;;14.07;;
27113;SDS011;14648;49.730;8.614;2022-12-05T02:25:08;24.77;;;13.83;;
27113;SDS011;14648;49.730;8.614;2022-12-05T02:37:00;39.20;;;15.20;;
27113;SDS011;14648;49.730;8.614;2022-12-05T02:43:27;30.30;;;14.77;;
27113;SDS011;14648;49.730;8.614;2022-12-05T02:46:07;36.07;;;15.30;;
27113;SDS011;14648;49.730;8.614;2022-12-05T02:48:37;31.13;;;14.83;;
27113;SDS011;14648;49.730;8.614;2022-12-05T02:51:05;34.83;;;14.40;;
27113;SDS011;14648;49.730;8.614;2022-12-05T02:53:33;30.43;;;15.50;;
27113;SDS011;14648;49.730;8.614;2022-12-05T02:56:02;33.70;;;14.80;;
27113;SDS011;14648;49.730;8.614;2022-12-05T02:58:31;29.87;;;13.07;;
27113;SDS011;14648;49.730;8.614;2022-12-05T03:01:01;42.83;;;17.97;;
27113;SDS011;14648;49.730;8.614;2022-12-05T03:03:27;38.63;;;15.27;;
27113;SDS011;14648;49.730;8.614;2022-12-05T03:06:02;34.37;;;14.80;;
27113;SDS011;14648;49.730;8.614;2022-12-05T03:08:38;38.53;;;16.07;;
27113;SDS011;14648;49.730;8.614;2022-12-05T03:11:16;38.50;;;15.60;;
27113;SDS011;14648;49.730;8.614;2022-12-05T03:13:43;38.43;;;17.03;;
27113;SDS011;14648;49.730;8.614;2022-12-05T03:16:17;35.00;;;15.93;;
27113;SDS011;14648;49.730;8.614;2022-12-05T03:18:50;33.10;;;15.80;;
27113;SDS011;14648;49.730;8.614;2022-12-05T03:21:30;30.67;;;14.30;;
27113;SDS011;14648;49.730;8.614;2022-12-05T03:24:03;35.80;;;15.67;;
27113;SDS011;14648;49.730;8.614;2022-12-05T03:26:53;40.97;;;16.17;;
27113;SDS011;14648;49.730;8.614;2022-12-05T03:29:41;38.37;;;15.43;;
27113;SDS011;14648;49.730;8.614;2022-12-05T03:32:32;36.00;;;16.23;;
27113;SDS011;14648;49.730;8.614;2022-12-05T03:35:21;35.97;;;16.30;;
27113;SDS011;14648;49.730;8.614;2022-12-05T03:40:52;37.83;;;16.57;;
27113;SDS011;14648;49.730;8.614;2022-12-05T03:43:38;36.00;;;14.93;;
27113;SDS011;14648;49.730;8.614;2022-12-05T03:46:21;39.17;;;15.23;;
27113;SDS011;14648;49.730;8.614;2022-12-05T03:49:07;34.10;;;15.87;;
27113;SDS011;14648;49.730;8.614;2022-12-05T03:51:51;32.63;;;14.73;;
27113;SDS011;14648;49.730;8.614;2022-12-05T03:54:30;37.10;;;16.27;;
27113;SDS011;14648;49.730;8.614;2022-12-05T04:00:03;50.70;;;15.90;;
27113;SDS011;14648;49.730;8.614;2022-12-05T04:02:34;39.07;;;17.27;;
27113;SDS011;14648;49.730;8.614;2022-12-05T04:05:20;39.90;;;15.17;;
27113;SDS011;14648;49.730;8.614;2022-12-05T04:08:10;40.00;;;17.43;;
27113;SDS011;14648;49.730;8.614;2022-12-05T04:11:04;44.90;;;17.50;;
27113;SDS011;14648;49.730;8.614;2022-12-05T04:13:40;35.23;;;16.30;;
27113;SDS011;14648;49.730;8.614;2022-12-05T04:16:21;51.33;;;17.87;;
27113;SDS011;14648;49.730;8.614;2022-12-05T04:19:48;42.03;;;15.67;;
27113;SDS011;14648;49.730;8.614;2022-12-05T04:22:44;46.97;;;17.13;;
27113;SDS011;14648;49.730;8.614;2022-12-05T04:25:11;48.23;;;16.77;;
27113;SDS011;14648;49.730;8.614;2022-12-05T04:28:20;41.00;;;16.87;;
27113;SDS011;14648;49.730;8.614;2022-12-05T04:34:02;46.43;;;18.23;;
27113;SDS011;14648;49.730;8.614;2022-12-05T04:36:32;39.20;;;16.13;;
27113;SDS011;14648;49.730;8.614;2022-12-05T04:39:05;53.40;;;16.57;;
27113;SDS011;14648;49.730;8.614;2022-12-05T04:41:50;45.40;;;16.77;;
27113;SDS011;14648;49.730;8.614;2022-12-05T04:44:29;45.67;;;17.63;;
27113;SDS011;14648;49.730;8.614;2022-12-05T04:47:02;41.10;;;16.90;;
27113;SDS011;14648;49.730;8.614;2022-12-05T04:49:31;47.33;;;15.87;;
27113;SDS011;14648;49.730;8.614;2022-12-05T04:52:00;44.57;;;16.43;;
27113;SDS011;14648;49.730;8.614;2022-12-05T04:54:36;48.23;;;15.60;;
27113;SDS011;14648;49.730;8.614;2022-12-05T04:57:26;51.57;;;17.37;;
27113;SDS011;14648;49.730;8.614;2022-12-05T04:59:56;40.17;;;15.57;;
27113;SDS011;14648;49.730;8.614;2022-12-05T05:02:24;55.00;;;16.60;;
27113;SDS011;14648;49.730;8.614;2022-12-05T05:04:59;45.90;;;15.43;;
27113;SDS011;14648;49.730;8.614;2022-12-05T05:07:28;37.00;;;15.10;;
27113;SDS011;14648;49.730;8.614;2022-12-05T05:09:55;55.87;;;15.50;;
27113;SDS011;14648;49.730;8.614;2022-12-05T05:12:21;36.37;;;15.77;;
27113;SDS011;14648;49.730;8.614;2022-12-05T05:14:46;35.90;;;15.77;;
27113;SDS011;14648;49.730;8.614;2022-12-05T05:17:12;40.70;;;15.20;;
27113;SDS011;14648;49.730;8.614;2022-12-05T05:19:38;38.33;;;16.63;;
27113;SDS011;14648;49.730;8.614;2022-12-05T05:22:04;42.30;;;17.03;;
27113;SDS011;14648;49.730;8.614;2022-12-05T05:24:30;49.33;;;16.30;;
27113;SDS011;14648;49.730;8.614;2022-12-05T05:26:55;66.40;;;19.10;;
27113;SDS011;14648;49.730;8.614;2022-12-05T05:29:21;40.00;;;15.70;;
27113;SDS011;14648;49.730;8.614;2022-12-05T05:31:47;41.87;;;15.70;;
27113;SDS011;14648;49.730;8.614;2022-12-05T05:34:12;40.03;;;16.17;;
27113;SDS011;14648;49.730;8.614;2022-12-05T05:36:40;63.13;;;19.50;;
27113;SDS011;14648;49.730;8.614;2022-12-05T05:39:10;44.83;;;19.10;;
27113;SDS011;14648;49.730;8.614;2022-12-05T05:41:38;39.03;;;16.23;;
27113;SDS011;14648;49.730;8.614;2022-12-05T05:44:04;47.43;;;19.77;;
27113;SDS011;14648;49.730;8.614;2022-12-05T05:46:32;43.93;;;18.40;;
27113;SDS011;14648;49.730;8.614;2022-12-05T05:49:01;46.37;;;19.07;;
27113;SDS011;14648;49.730;8.614;2022-12-05T05:51:26;65.90;;;20.03;;
27113;SDS011;14648;49.730;8.614;2022-12-05T05:53:54;61.17;;;19.77;;
27113;SDS011;14648;49.730;8.614;2022-12-05T05:56:21;59.47;;;21.37;;
27113;SDS011;14648;49.730;8.614;2022-12-05T05:58:53;50.00;;;18.60;;
27113;SDS011;14648;49.730;8.614;2022-12-05T06:01:25;59.67;;;19.50;;
27113;SDS011;14648;49.730;8.614;2022-12-05T06:03:51;43.63;;;17.90;;
27113;SDS011;14648;49.730;8.614;2022-12-05T06:06:17;62.07;;;21.67;;
27113;SDS011;14648;49.730;8.614;2022-12-05T06:08:44;53.10;;;19.80;;
27113;SDS011;14648;49.730;8.614;2022-12-05T06:11:12;73.40;;;21.37;;
27113;SDS011;14648;49.730;8.614;2022-12-05T06:13:40;54.63;;;19.40;;
27113;SDS011;14648;49.730;8.614;2022-12-05T06:16:07;57.70;;;19.20;;
27113;SDS011;14648;49.730;8.614;2022-12-05T06:18:35;54.13;;;18.57;;
27113;SDS011;14648;49.730;8.614;2022-12-05T06:21:01;48.57;;;17.70;;
27113;SDS011;14648;49.730;8.614;2022-12-05T06:23:29;60.57;;;20.17;;
27113;SDS011;14648;49.730;8.614;2022-12-05T06:25:55;64.00;;;18.20;;
27113;SDS011;14648;49.730;8.614;2022-12-05T06:28:24;40.77;;;16.97;;
27113;SDS011;14648;49.730;8.614;2022-12-05T06:30:50;49.77;;;17.80;;
27113;SDS011;14648;49.730;8.614;2022-12-05T06:33:17;47.33;;;17.60;;
27113;SDS011;14648;49.730;8.614;2022-12-05T06:35:43;49.50;;;19.83;;
27113;SDS011;14648;49.730;8.614;2022-12-05T06:38:12;52.90;;;18.40;;
27113;SDS011;14648;49.730;8.614;2022-12-05T06:40:39;54.83;;;17.30;;
27113;SDS011;14648;49.730;8.614;2022-12-05T06:43:07;58.90;;;19.30;;
27113;SDS011;14648;49.730;8.614;2022-12-05T06:45:33;47.87;;;17.10;;
27113;SDS011;14648;49.730;8.614;2022-12-05T06:47:58;56.67;;;17.17;;
27113;SDS011;14648;49.730;8.614;2022-12-05T06:50:24;50.23;;;17.97;;
27113;SDS011;14648;49.730;8.614;2022-12-05T06:52:50;52.17;;;18.40;;
27113;SDS011;14648;49.730;8.614;2022-12-05T06:55:15;56.47;;;20.77;;
27113;SDS011;14648;49.730;8.614;2022-12-05T06:57:41;51.63;;;18.30;;
27113;SDS011;14648;49.730;8.614;2022-12-05T07:00:07;59.70;;;18.47;;
27113;SDS011;14648;49.730;8.614;2022-12-05T07:02:52;46.90;;;18.83;;
27113;SDS011;14648;49.730;8.614;2022-12-05T07:05:18;41.63;;;16.77;;
27113;SDS011;14648;49.730;8.614;2022-12-05T07:07:44;52.27;;;17.90;;
27113;SDS011;14648;49.730;8.614;2022-12-05T07:10:10;50.07;;;18.60;;
27113;SDS011;14648;49.730;8.614;2022-12-05T07:12:36;54.87;;;18.80;;
27113;SDS011;14648;49.730;8.614;2022-12-05T07:15:02;40.10;;;16.30;;
27113;SDS011;14648;49.730;8.614;2022-12-05T07:17:28;52.93;;;17.07;;
27113;SDS011;14648;49.730;8.614;2022-12-05T07:19:54;41.27;;;15.90;;
27113;SDS011;14648;49.730;8.614;2022-12-05T07:22:20;45.50;;;16.70;;
27113;SDS011;14648;49.730;8.614;2022-12-05T07:24:47;34.43;;;15.73;;
27113;SDS011;14648;49.730;8.614;2022-12-05T07:27:15;43.13;;;17.97;;
27113;SDS011;14648;49.730;8.614;2022-12-05T07:29:41;44.60;;;17.03;;
27113;SDS011;14648;49.730;8.614;2022-12-05T07:32:07;40.50;;;17.37;;
27113;SDS011;14648;49.730;8.614;2022-12-05T07:34:32;52.70;;;17.57;;
27113;SDS011;14648;49.730;8.614;2022-12-05T07:36:58;37.60;;;17.50;;
27113;SDS011;14648;49.730;8.614;2022-12-05T07:39:24;39.07;;;17.30;;
27113;SDS011;14648;49.730;8.614;2022-12-05T07:41:51;43.47;;;17.93;;
27113;SDS011;14648;49.730;8.614;2022-12-05T07:44:16;35.77;;;15.97;;
27113;SDS011;14648;49.730;8.614;2022-12-05T07:46:42;39.40;;;15.67;;
27113;SDS011;14648;49.730;8.614;2022-12-05T07:49:08;38.93;;;16.33;;
27113;SDS011;14648;49.730;8.614;2022-12-05T07:51:34;43.50;;;16.47;;
27113;SDS011;14648;49.730;8.614;2022-12-05T07:54:00;42.07;;;18.73;;
27113;SDS011;14648;49.730;8.614;2022-12-05T07:56:26;42.73;;;17.97;;
27113;SDS011;14648;49.730;8.614;2022-12-05T07:58:53;40.80;;;17.77;;
27113;SDS011;14648;49.730;8.614;2022-12-05T08:01:20;42.37;;;15.83;;
27113;SDS011;14648;49.730;8.614;2022-12-05T08:03:48;45.67;;;17.87;;
27113;SDS011;14648;49.730;8.614;2022-12-05T08:06:17;44.23;;;17.30;;
27113;SDS011;14648;49.730;8.614;2022-12-05T08:08:46;53.53;;;15.93;;
27113;SDS011;14648;49.730;8.614;2022-12-05T08:11:16;39.83;;;17.20;;
27113;SDS011;14648;49.730;8.614;2022-12-05T08:13:48;51.67;;;18.70;;
27113;SDS011;14648;49.730;8.614;2022-12-05T08:16:15;46.97;;;17.63;;
27113;SDS011;14648;49.730;8.614;2022-12-05T08:18:45;53.00;;;17.27;;
27113;SDS011;14648;49.730;8.614;2022-12-05T08:21:12;44.33;;;18.83;;
27113;SDS011;14648;49.730;8.614;2022-12-05T08:23:43;48.70;;;18.53;;
27113;SDS011;14648;49.730;8.614;2022-12-05T08:26:29;47.13;;;18.60;;
27113;SDS011;14648;49.730;8.614;2022-12-05T08:31:25;49.37;;;17.37;;
27113;SDS011;14648;49.730;8.614;2022-12-05T08:33:54;51.23;;;18.23;;
27113;SDS011;14648;49.730;8.614;2022-12-05T08:36:22;53.77;;;18.10;;
27113;SDS011;14648;49.730;8.614;2022-12-05T08:38:48;51.50;;;19.33;;
27113;SDS011;14648;49.730;8.614;2022-12-05T08:41:14;45.70;;;18.67;;
27113;SDS011;14648;49.730;8.614;2022-12-05T08:43:43;46.40;;;18.70;;
27113;SDS011;14648;49.730;8.614;2022-12-05T08:46:09;49.60;;;17.50;;
27113;SDS011;14648;49.730;8.614;2022-12-05T08:48:35;59.23;;;20.63;;
27113;SDS011;14648;49.730;8.614;2022-12-05T08:51:05;52.17;;;20.90;;
27113;SDS011;14648;49.730;8.614;2022-12-05T08:53:34;49.33;;;18.37;;
27113;SDS011;14648;49.730;8.614;2022-12-05T08:56:02;49.17;;;19.37;;
27113;SDS011;14648;49.730;8.614;2022-12-05T08:58:29;49.60;;;19.27;;
27113;SDS011;14648;49.730;8.614;2022-12-05T09:01:02;53.47;;;18.30;;
27113;SDS011;14648;49.730;8.614;2022-12-05T09:03:38;41.63;;;18.80;;
27113;SDS011;14648;49.730;8.614;2022-12-05T09:06:12;53.63;;;19.33;;
27113;SDS011;14648;49.730;8.614;2022-12-05T09:08:41;43.50;;;17.30;;
27113;SDS011;14648;49.730;8.614;2022-12-05T09:11:08;36.93;;;16.50;;
27113;SDS011;14648;49.730;8.614;2022-12-05T09:13:45;42.73;;;16.50;;
27113;SDS011;14648;49.730;8.614;2022-12-05T09:16:16;46.77;;;17.80;;
27113;SDS011;14648;49.730;8.614;2022-12-05T09:18:53;39.03;;;15.70;;
27113;SDS011;14648;49.730;8.614;2022-12-05T09:21:21;47.37;;;18.37;;
27113;SDS011;14648;49.730;8.614;2022-12-05T09:23:53;35.67;;;15.93;;
27113;SDS011;14648;49.730;8.614;2022-12-05T09:26:21;37.10;;;17.57;;
27113;SDS011;14648;49.730;8.614;2022-12-05T09:28:50;38.83;;;16.93;;
27113;SDS011;14648;49.730;8.614;2022-12-05T09:31:18;50.83;;;19.17;;
27113;SDS011;14648;49.730;8.614;2022-12-05T09:33:46;47.63;;;19.20;;
27113;SDS011;14648;49.730;8.614;2022-12-05T09:36:16;38.83;;;17.90;;
27113;SDS011;14648;49.730;8.614;2022-12-05T09:38:45;41.20;;;17.97;;
27113;SDS011;14648;49.730;8.614;2022-12-05T09:44:20;40.60;;;16.50;;
27113;SDS011;14648;49.730;8.614;2022-12-05T09:46:55;53.93;;;18.53;;
27113;SDS011;14648;49.730;8.614;2022-12-05T09:55:46;44.13;;;16.27;;
27113;SDS011;14648;49.730;8.614;2022-12-05T09:58:37;45.23;;;18.90;;
27113;SDS011;14648;49.730;8.614;2022-12-05T10:04:01;41.67;;;17.80;;
27113;SDS011;14648;49.730;8.614;2022-12-05T10:07:07;36.57;;;16.30;;
27113;SDS011;14648;49.730;8.614;2022-12-05T10:15:53;31.23;;;16.60;;
27113;SDS011;14648;49.730;8.614;2022-12-05T10:23:52;36.73;;;16.10;;
27113;SDS011;14648;49.730;8.614;2022-12-05T10:26:23;42.07;;;17.20;;
27113;SDS011;14648;49.730;8.614;2022-12-05T10:32:02;37.20;;;17.07;;
27113;SDS011;14648;49.730;8.614;2022-12-05T10:34:40;33.47;;;15.93;;
27113;SDS011;14648;49.730;8.614;2022-12-05T10:37:14;41.27;;;16.20;;
27113;SDS011;14648;49.730;8.614;2022-12-05T10:39:46;37.83;;;16.03;;
27113;SDS011;14648;49.730;8.614;2022-12-05T10:42:31;42.87;;;16.30;;
27113;SDS011;14648;49.730;8.614;2022-12-05T10:45:01;38.83;;;16.03;;
27113;SDS011;14648;49.730;8.614;2022-12-05T10:47:31;33.43;;;15.60;;
27113;SDS011;14648;49.730;8.614;2022-12-05T10:49:59;35.60;;;16.57;;
27113;SDS011;14648;49.730;8.614;2022-12-05T10:52:31;32.33;;;16.57;;
27113;SDS011;14648;49.730;8.614;2022-12-05T10:54:59;34.77;;;15.97;;
27113;SDS011;14648;49.730;8.614;2022-12-05T10:57:28;42.50;;;16.70;;
27113;SDS011;14648;49.730;8.614;2022-12-05T10:59:54;35.10;;;15.50;;
27113;SDS011;14648;49.730;8.614;2022-12-05T11:04:52;37.33;;;16.07;;
27113;SDS011;14648;49.730;8.614;2022-12-05T11:07:28;32.17;;;15.83;;
27113;SDS011;14648;49.730;8.614;2022-12-05T11:09:58;40.47;;;15.27;;
27113;SDS011;14648;49.730;8.614;2022-12-05T11:12:26;35.13;;;15.47;;
27113;SDS011;14648;49.730;8.614;2022-12-05T11:15:03;34.47;;;15.70;;
27113;SDS011;14648;49.730;8.614;2022-12-05T11:17:46;27.47;;;14.07;;
27113;SDS011;14648;49.730;8.614;2022-12-05T11:22:42;37.10;;;16.20;;
27113;SDS011;14648;49.730;8.614;2022-12-05T11:25:29;29.40;;;14.93;;
27113;SDS011;14648;49.730;8.614;2022-12-05T11:30:43;38.83;;;15.47;;
27113;SDS011;14648;49.730;8.614;2022-12-05T11:33:21;28.73;;;16.10;;
27113;SDS011;14648;49.730;8.614;2022-12-05T11:35:49;34.30;;;16.60;;
27113;SDS011;14648;49.730;8.614;2022-12-05T11:38:18;31.47;;;15.33;;
27113;SDS011;14648;49.730;8.614;2022-12-05T11:47:21;34.10;;;14.03;;
27113;SDS011;14648;49.730;8.614;2022-12-05T11:50:44;36.17;;;15.20;;
27113;SDS011;14648;49.730;8.614;2022-12-05T11:59:16;32.80;;;15.77;;
27113;SDS011;14648;49.730;8.614;2022-12-05T12:02:17;30.67;;;16.03;;
27113;SDS011;14648;49.730;8.614;2022-12-05T12:10:55;27.67;;;14.67;;
27113;SDS011;14648;49.730;8.614;2022-12-05T12:20:09;33.33;;;14.80;;
27113;SDS011;14648;49.730;8.614;2022-12-05T12:23:13;30.13;;;15.13;;
27113;SDS011;14648;49.730;8.614;2022-12-05T12:26:46;31.47;;;15.60;;
27113;SDS011;14648;49.730;8.614;2022-12-05T12:32:22;34.03;;;16.20;;
27113;SDS011;14648;49.730;8.614;2022-12-05T12:35:49;26.63;;;14.30;;
27113;SDS011;14648;49.730;8.614;2022-12-05T12:38:43;25.87;;;13.53;;
27113;SDS011;14648;49.730;8.614;2022-12-05T12:41:47;28.03;;;15.03;;
27113;SDS011;14648;49.730;8.614;2022-12-05T12:50:34;32.07;;;14.80;;
27113;SDS011;14648;49.730;8.614;2022-12-05T13:04:08;30.60;;;15.77;;
27113;SDS011;14648;49.730;8.614;2022-12-05T13:06:41;29.63;;;14.97;;
27113;SDS011;14648;49.730;8.614;2022-12-05T13:09:34;39.50;;;18.77;;
27113;SDS011;14648;49.730;8.614;2022-12-05T13:12:11;32.53;;;16.07;;
27113;SDS011;14648;49.730;8.614;2022-12-05T13:14:45;31.67;;;16.03;;
27113;SDS011;14648;49.730;8.614;2022-12-05T13:17:19;30.33;;;15.40;;
27113;SDS011;14648;49.730;8.614;2022-12-05T13:19:50;30.03;;;14.23;;
27113;SDS011;14648;49.730;8.614;2022-12-05T13:22:17;25.17;;;13.77;;
27113;SDS011;14648;49.730;8.614;2022-12-05T13:24:49;27.83;;;14.80;;
27113;SDS011;14648;49.730;8.614;2022-12-05T13:27:17;33.23;;;15.10;;
27113;SDS011;14648;49.730;8.614;2022-12-05T13:29:50;29.97;;;15.03;;
27113;SDS011;14648;49.730;8.614;2022-12-05T13:32:24;24.57;;;14.10;;
27113;SDS011;14648;49.730;8.614;2022-12-05T13:37:31;35.07;;;15.70;;
27113;SDS011;14648;49.730;8.614;2022-12-05T13:40:26;31.00;;;14.67;;
27113;SDS011;14648;49.730;8.614;2022-12-05T13:43:15;30.60;;;13.87;;
27113;SDS011;14648;49.730;8.614;2022-12-05T13:48:50;26.23;;;14.00;;
27113;SDS011;14648;49.730;8.614;2022-12-05T13:51:30;23.53;;;13.67;;
27113;SDS011;14648;49.730;8.614;2022-12-05T13:54:23;30.70;;;13.87;;
27113;SDS011;14648;49.730;8.614;2022-12-05T13:56:57;26.27;;;12.67;;
27113;SDS011;14648;49.730;8.614;2022-12-05T14:07:45;30.20;;;15.63;;
27113;SDS011;14648;49.730;8.614;2022-12-05T14:12:55;27.50;;;13.03;;
27113;SDS011;14648;49.730;8.614;2022-12-05T14:15:50;22.70;;;13.07;;
27113;SDS011;14648;49.730;8.614;2022-12-05T14:24:53;28.83;;;14.40;;
27113;SDS011;14648;49.730;8.614;2022-12-05T14:27:42;28.23;;;14.13;;
27113;SDS011;14648;49.730;8.614;2022-12-05T14:30:39;32.20;;;17.50;;
27113;SDS011;14648;49.730;8.614;2022-12-05T14:33:25;31.90;;;16.67;;
27113;SDS011;14648;49.730;8.614;2022-12-05T14:35:50;27.53;;;16.40;;
27113;SDS011;14648;49.730;8.614;2022-12-05T14:38:19;36.10;;;18.20;;
27113;SDS011;14648;49.730;8.614;2022-12-05T14:40:54;33.97;;;17.93;;
27113;SDS011;14648;49.730;8.614;2022-12-05T14:43:26;27.83;;;15.53;;
27113;SDS011;14648;49.730;8.614;2022-12-05T14:45:59;33.50;;;14.47;;
27113;SDS011;14648;49.730;8.614;2022-12-05T14:48:29;28.33;;;12.93;;
27113;SDS011;14648;49.730;8.614;2022-12-05T14:51:41;28.40;;;14.77;;
27113;SDS011;14648;49.730;8.614;2022-12-05T14:53:55;32.73;;;14.67;;
27113;SDS011;14648;49.730;8.614;2022-12-05T14:57:11;20.47;;;12.67;;
27113;SDS011;14648;49.730;8.614;2022-12-05T15:02:20;23.70;;;13.63;;
27113;SDS011;14648;49.730;8.614;2022-12-05T15:07:48;29.43;;;14.60;;
27113;SDS011;14648;49.730;8.614;2022-12-05T15:10:24;24.10;;;13.07;;
27113;SDS011;14648;49.730;8.614;2022-12-05T15:13:15;24.83;;;12.73;;
27113;SDS011;14648;49.730;8.614;2022-12-05T15:15:46;18.93;;;10.67;;
27113;SDS011;14648;49.730;8.614;2022-12-05T15:21:09;26.67;;;12.97;;
27113;SDS011;14648;49.730;8.614;2022-12-05T15:34:59;19.37;;;10.07;;
27113;SDS011;14648;49.730;8.614;2022-12-05T15:37:33;23.30;;;10.70;;
27113;SDS011;14648;49.730;8.614;2022-12-05T15:40:17;20.43;;;11.60;;
27113;SDS011;14648;49.730;8.614;2022-12-05T15:42:49;11.93;;;6.90;;
27113;SDS011;14648;49.730;8.614;2022-12-05T15:45:22;10.53;;;6.00;;
27113;SDS011;14648;49.730;8.614;2022-12-05T15:47:55;9.07;;;5.90;;
27113;SDS011;14648;49.730;8.614;2022-12-05T15:50:46;7.20;;;4.20;;
27113;SDS011;14648;49.730;8.614;2022-12-05T15:56:19;6.83;;;4.33;;
27113;SDS011;14648;49.730;8.614;2022-12-05T15:59:29;4.20;;;3.60;;
27113;SDS011;14648;49.730;8.614;2022-12-05T16:02:11;7.70;;;4.73;;
27113;SDS011;14648;49.730;8.614;2022-12-05T16:04:58;5.27;;;3.50;;
27113;SDS011;14648;49.730;8.614;2022-12-05T16:07:26;3.37;;;2.93;;
27113;SDS011;14648;49.730;8.614;2022-12-05T16:09:54;6.70;;;4.47;;
27113;SDS011;14648;49.730;8.614;2022-12-05T16:12:30;4.87;;;3.67;;
27113;SDS011;14648;49.730;8.614;2022-12-05T16:15:13;2.90;;;2.70;;
27113;SDS011;14648;49.730;8.614;2022-12-05T16:17:53;4.63;;;3.47;;
27113;SDS011;14648;49.730;8.614;2022-12-05T16:20:22;2.90;;;2.70;;
27113;SDS011;14648;49.730;8.614;2022-12-05T16:22:55;5.80;;;3.93;;
27113;SDS011;14648;49.730;8.614;2022-12-05T16:25:27;4.03;;;3.60;;
27113;SDS011;14648;49.730;8.614;2022-12-05T16:30:32;3.43;;;3.13;;
27113;SDS011;14648;49.730;8.614;2022-12-05T16:33:06;3.83;;;3.33;;
27113;SDS011;14648;49.730;8.614;2022-12-05T16:35:42;3.97;;;3.60;;
27113;SDS011;14648;49.730;8.614;2022-12-05T16:48:44;9.10;;;6.03;;
27113;SDS011;14648;49.730;8.614;2022-12-05T16:53:50;6.07;;;4.50;;
27113;SDS011;14648;49.730;8.614;2022-12-05T16:56:27;5.20;;;4.10;;
27113;SDS011;14648;49.730;8.614;2022-12-05T16:58:55;3.67;;;3.00;;
27113;SDS011;14648;49.730;8.614;2022-12-05T17:01:25;2.90;;;2.70;;
27113;SDS011;14648;49.730;8.614;2022-12-05T17:03:52;8.30;;;3.40;;
27113;SDS011;14648;49.730;8.614;2022-12-05T17:06:19;6.70;;;3.70;;
27113;SDS011;14648;49.730;8.614;2022-12-05T17:08:47;5.00;;;3.40;;
27113;SDS011;14648;49.730;8.614;2022-12-05T17:11:28;3.23;;;2.70;;
27113;SDS011;14648;49.730;8.614;2022-12-05T17:13:58;3.30;;;3.00;;
27113;SDS011;14648;49.730;8.614;2022-12-05T17:16:24;2.97;;;2.70;;
27113;SDS011;14648;49.730;8.614;2022-12-05T17:18:50;4.60;;;3.43;;
27113;SDS011;14648;49.730;8.614;2022-12-05T17:21:17;3.03;;;2.73;;
27113;SDS011;14648;49.730;8.614;2022-12-05T17:23:45;4.60;;;3.00;;
27113;SDS011;14648;49.730;8.614;2022-12-05T17:26:13;3.10;;;2.90;;
27113;SDS011;14648;49.730;8.614;2022-12-05T17:28:45;3.20;;;3.00;;
27113;SDS011;14648;49.730;8.614;2022-12-05T17:31:18;2.80;;;2.60;;
27113;SDS011;14648;49.730;8.614;2022-12-05T17:33:50;2.90;;;2.60;;
27113;SDS011;14648;49.730;8.614;2022-12-05T17:36:18;4.77;;;2.40;;
27113;SDS011;14648;49.730;8.614;2022-12-05T17:38:45;2.27;;;2.17;;
27113;SDS011;14648;49.730;8.614;2022-12-05T17:41:15;3.10;;;2.90;;
27113;SDS011;14648;49.730;8.614;2022-12-05T17:43:43;3.10;;;2.87;;
27113;SDS011;14648;49.730;8.614;2022-12-05T17:46:13;3.87;;;2.97;;
27113;SDS011;14648;49.730;8.614;2022-12-05T17:48:45;3.43;;;2.67;;